sensor_id;sensor_type;location;lat;lon;timestamp;P1;durP1;ratioP1;P2;durP2;ratioP2
69026;SDS011;56080;47.594;19.116;2022-12-07T00:01:34;849.30;;;616.60;;
69026;SDS011;56080;47.594;19.116;2022-12-07T00:06:33;844.70;;;603.10;;
69026;SDS011;56080;47.594;19.116;2022-12-07T00:11:33;844.70;;;603.10;;
69026;SDS011;56080;47.594;19.116;2022-12-07T00:16:34;860.20;;;631.00;;
69026;SDS011;56080;47.594;19.116;2022-12-07T00:21:34;860.20;;;631.00;;
69026;SDS011;56080;47.594;19.116;2022-12-07T00:26:35;853.70;;;641.30;;
69026;SDS011;56080;47.594;19.116;2022-12-07T00:31:35;853.70;;;641.30;;
69026;SDS011;56080;47.594;19.116;2022-12-07T00:36:37;845.90;;;636.10;;
69026;SDS011;56080;47.594;19.116;2022-12-07T00:41:33;845.90;;;636.10;;
69026;SDS011;56080;47.594;19.116;2022-12-07T00:46:33;844.10;;;629.70;;
69026;SDS011;56080;47.594;19.116;2022-12-07T00:51:33;844.10;;;629.70;;
69026;SDS011;56080;47.594;19.116;2022-12-07T00:56:34;845.60;;;631.40;;
69026;SDS011;56080;47.594;19.116;2022-12-07T01:01:34;845.60;;;631.40;;
69026;SDS011;56080;47.594;19.116;2022-12-07T01:06:33;840.80;;;655.40;;
69026;SDS011;56080;47.594;19.116;2022-12-07T01:11:34;840.80;;;655.40;;
69026;SDS011;56080;47.594;19.116;2022-12-07T01:16:33;796.40;;;616.60;;
69026;SDS011;56080;47.594;19.116;2022-12-07T01:21:34;796.40;;;616.60;;
69026;SDS011;56080;47.594;19.116;2022-12-07T01:26:33;807.30;;;633.30;;
69026;SDS011;56080;47.594;19.116;2022-12-07T01:31:33;807.30;;;633.30;;
69026;SDS011;56080;47.594;19.116;2022-12-07T01:36:34;815.70;;;637.40;;
69026;SDS011;56080;47.594;19.116;2022-12-07T01:41:34;815.70;;;637.40;;
69026;SDS011;56080;47.594;19.116;2022-12-07T01:46:32;813.70;;;648.80;;
69026;SDS011;56080;47.594;19.116;2022-12-07T01:51:32;813.70;;;648.80;;
69026;SDS011;56080;47.594;19.116;2022-12-07T01:56:35;825.10;;;680.90;;
69026;SDS011;56080;47.594;19.116;2022-12-07T02:01:32;825.10;;;680.90;;
69026;SDS011;56080;47.594;19.116;2022-12-07T02:06:35;849.20;;;719.10;;
69026;SDS011;56080;47.594;19.116;2022-12-07T02:11:32;849.20;;;719.10;;
69026;SDS011;56080;47.594;19.116;2022-12-07T02:27:01;835.20;;;683.20;;
69026;SDS011;56080;47.594;19.116;2022-12-07T02:31:33;835.20;;;683.20;;
69026;SDS011;56080;47.594;19.116;2022-12-07T02:36:39;808.60;;;614.20;;
69026;SDS011;56080;47.594;19.116;2022-12-07T02:41:42;808.60;;;614.20;;
69026;SDS011;56080;47.594;19.116;2022-12-07T02:46:37;795.30;;;607.80;;
69026;SDS011;56080;47.594;19.116;2022-12-07T02:51:32;795.30;;;607.80;;
69026;SDS011;56080;47.594;19.116;2022-12-07T03:06:39;800.00;;;630.40;;
69026;SDS011;56080;47.594;19.116;2022-12-07T03:11:42;800.00;;;630.40;;
69026;SDS011;56080;47.594;19.116;2022-12-07T03:16:37;806.10;;;641.00;;
69026;SDS011;56080;47.594;19.116;2022-12-07T03:26:39;809.60;;;640.90;;
69026;SDS011;56080;47.594;19.116;2022-12-07T03:31:38;809.60;;;640.90;;
69026;SDS011;56080;47.594;19.116;2022-12-07T03:41:34;798.70;;;612.20;;
69026;SDS011;56080;47.594;19.116;2022-12-07T03:51:39;811.80;;;618.30;;
69026;SDS011;56080;47.594;19.116;2022-12-07T03:56:32;806.60;;;609.70;;
69026;SDS011;56080;47.594;19.116;2022-12-07T04:01:33;806.60;;;609.70;;
69026;SDS011;56080;47.594;19.116;2022-12-07T04:06:32;811.10;;;591.90;;
69026;SDS011;56080;47.594;19.116;2022-12-07T04:11:32;811.10;;;591.90;;
69026;SDS011;56080;47.594;19.116;2022-12-07T04:16:32;819.00;;;605.80;;
69026;SDS011;56080;47.594;19.116;2022-12-07T04:21:32;819.00;;;605.80;;
69026;SDS011;56080;47.594;19.116;2022-12-07T04:26:32;816.80;;;597.00;;
69026;SDS011;56080;47.594;19.116;2022-12-07T04:31:32;816.80;;;597.00;;
69026;SDS011;56080;47.594;19.116;2022-12-07T04:36:32;810.60;;;589.00;;
69026;SDS011;56080;47.594;19.116;2022-12-07T04:41:37;810.60;;;589.00;;
69026;SDS011;56080;47.594;19.116;2022-12-07T04:46:33;803.20;;;577.80;;
69026;SDS011;56080;47.594;19.116;2022-12-07T04:51:34;803.20;;;577.80;;
69026;SDS011;56080;47.594;19.116;2022-12-07T04:56:32;815.70;;;586.30;;
69026;SDS011;56080;47.594;19.116;2022-12-07T05:01:33;815.70;;;586.30;;
69026;SDS011;56080;47.594;19.116;2022-12-07T05:06:32;818.50;;;574.00;;
69026;SDS011;56080;47.594;19.116;2022-12-07T05:11:42;818.50;;;574.00;;
69026;SDS011;56080;47.594;19.116;2022-12-07T05:16:32;822.10;;;569.80;;
69026;SDS011;56080;47.594;19.116;2022-12-07T05:21:32;822.10;;;569.80;;
69026;SDS011;56080;47.594;19.116;2022-12-07T05:26:32;827.10;;;575.00;;
69026;SDS011;56080;47.594;19.116;2022-12-07T05:31:33;827.10;;;575.00;;
69026;SDS011;56080;47.594;19.116;2022-12-07T05:36:32;823.60;;;570.10;;
69026;SDS011;56080;47.594;19.116;2022-12-07T05:41:42;823.60;;;570.10;;
69026;SDS011;56080;47.594;19.116;2022-12-07T05:46:33;811.70;;;553.30;;
69026;SDS011;56080;47.594;19.116;2022-12-07T05:51:32;811.70;;;553.30;;
69026;SDS011;56080;47.594;19.116;2022-12-07T05:56:32;819.20;;;569.80;;
69026;SDS011;56080;47.594;19.116;2022-12-07T06:01:32;819.20;;;569.80;;
69026;SDS011;56080;47.594;19.116;2022-12-07T06:06:32;805.20;;;541.40;;
69026;SDS011;56080;47.594;19.116;2022-12-07T06:11:42;805.20;;;541.40;;
69026;SDS011;56080;47.594;19.116;2022-12-07T06:16:33;799.40;;;520.60;;
69026;SDS011;56080;47.594;19.116;2022-12-07T06:21:32;799.40;;;520.60;;
69026;SDS011;56080;47.594;19.116;2022-12-07T06:26:32;811.70;;;546.80;;
69026;SDS011;56080;47.594;19.116;2022-12-07T06:31:32;811.70;;;546.80;;
69026;SDS011;56080;47.594;19.116;2022-12-07T06:41:33;813.70;;;571.20;;
69026;SDS011;56080;47.594;19.116;2022-12-07T06:46:33;822.20;;;604.10;;
69026;SDS011;56080;47.594;19.116;2022-12-07T06:56:33;809.30;;;574.70;;
69026;SDS011;56080;47.594;19.116;2022-12-07T07:01:33;809.30;;;574.70;;
69026;SDS011;56080;47.594;19.116;2022-12-07T07:06:32;778.10;;;570.10;;
69026;SDS011;56080;47.594;19.116;2022-12-07T07:11:33;778.10;;;570.10;;
69026;SDS011;56080;47.594;19.116;2022-12-07T07:16:33;778.90;;;585.10;;
69026;SDS011;56080;47.594;19.116;2022-12-07T07:21:32;778.90;;;585.10;;
69026;SDS011;56080;47.594;19.116;2022-12-07T07:26:34;786.20;;;567.00;;
69026;SDS011;56080;47.594;19.116;2022-12-07T07:31:33;786.20;;;567.00;;
69026;SDS011;56080;47.594;19.116;2022-12-07T07:36:32;881.60;;;788.80;;
69026;SDS011;56080;47.594;19.116;2022-12-07T07:41:32;881.60;;;788.80;;
69026;SDS011;56080;47.594;19.116;2022-12-07T07:46:32;876.30;;;783.60;;
69026;SDS011;56080;47.594;19.116;2022-12-07T07:51:32;876.30;;;783.60;;
69026;SDS011;56080;47.594;19.116;2022-12-07T07:56:33;972.50;;;880.60;;
69026;SDS011;56080;47.594;19.116;2022-12-07T08:01:32;972.50;;;880.60;;
69026;SDS011;56080;47.594;19.116;2022-12-07T08:06:32;670.80;;;432.40;;
69026;SDS011;56080;47.594;19.116;2022-12-07T08:11:32;670.80;;;432.40;;
69026;SDS011;56080;47.594;19.116;2022-12-07T08:16:33;591.20;;;336.40;;
69026;SDS011;56080;47.594;19.116;2022-12-07T08:21:32;591.20;;;336.40;;
69026;SDS011;56080;47.594;19.116;2022-12-07T08:26:32;812.50;;;563.20;;
69026;SDS011;56080;47.594;19.116;2022-12-07T08:31:32;812.50;;;563.20;;
69026;SDS011;56080;47.594;19.116;2022-12-07T08:36:33;870.90;;;636.10;;
69026;SDS011;56080;47.594;19.116;2022-12-07T08:41:32;870.90;;;636.10;;
69026;SDS011;56080;47.594;19.116;2022-12-07T08:46:37;884.40;;;652.20;;
69026;SDS011;56080;47.594;19.116;2022-12-07T08:51:32;884.40;;;652.20;;
69026;SDS011;56080;47.594;19.116;2022-12-07T08:56:33;839.20;;;559.40;;
69026;SDS011;56080;47.594;19.116;2022-12-07T09:01:33;839.20;;;559.40;;
69026;SDS011;56080;47.594;19.116;2022-12-07T09:06:33;829.60;;;559.20;;
69026;SDS011;56080;47.594;19.116;2022-12-07T09:11:39;829.60;;;559.20;;
69026;SDS011;56080;47.594;19.116;2022-12-07T09:16:32;684.40;;;390.00;;
69026;SDS011;56080;47.594;19.116;2022-12-07T09:21:32;684.40;;;390.00;;
69026;SDS011;56080;47.594;19.116;2022-12-07T09:26:32;782.60;;;491.00;;
69026;SDS011;56080;47.594;19.116;2022-12-07T09:31:36;782.60;;;491.00;;
69026;SDS011;56080;47.594;19.116;2022-12-07T09:36:38;850.60;;;560.80;;
69026;SDS011;56080;47.594;19.116;2022-12-07T09:41:33;850.60;;;560.80;;
69026;SDS011;56080;47.594;19.116;2022-12-07T09:46:35;644.70;;;335.00;;
69026;SDS011;56080;47.594;19.116;2022-12-07T09:51:34;644.70;;;335.00;;
69026;SDS011;56080;47.594;19.116;2022-12-07T09:56:32;655.60;;;334.50;;
69026;SDS011;56080;47.594;19.116;2022-12-07T10:01:33;655.60;;;334.50;;
69026;SDS011;56080;47.594;19.116;2022-12-07T10:06:32;645.70;;;328.20;;
69026;SDS011;56080;47.594;19.116;2022-12-07T10:11:32;645.70;;;328.20;;
69026;SDS011;56080;47.594;19.116;2022-12-07T10:16:37;633.40;;;321.20;;
69026;SDS011;56080;47.594;19.116;2022-12-07T10:21:35;633.40;;;321.20;;
69026;SDS011;56080;47.594;19.116;2022-12-07T10:26:39;620.80;;;314.40;;
69026;SDS011;56080;47.594;19.116;2022-12-07T10:31:33;620.80;;;314.40;;
69026;SDS011;56080;47.594;19.116;2022-12-07T10:36:34;614.90;;;313.40;;
69026;SDS011;56080;47.594;19.116;2022-12-07T10:41:32;614.90;;;313.40;;
69026;SDS011;56080;47.594;19.116;2022-12-07T10:51:52;600.10;;;306.60;;
69026;SDS011;56080;47.594;19.116;2022-12-07T11:01:40;625.00;;;320.60;;
69026;SDS011;56080;47.594;19.116;2022-12-07T11:31:53;600.70;;;305.50;;
69026;SDS011;56080;47.594;19.116;2022-12-07T11:36:40;596.50;;;302.50;;
69026;SDS011;56080;47.594;19.116;2022-12-07T11:41:37;596.50;;;302.50;;
69026;SDS011;56080;47.594;19.116;2022-12-07T11:46:43;607.90;;;313.50;;
69026;SDS011;56080;47.594;19.116;2022-12-07T11:51:34;607.90;;;313.50;;
69026;SDS011;56080;47.594;19.116;2022-12-07T11:56:35;624.20;;;324.40;;
69026;SDS011;56080;47.594;19.116;2022-12-07T12:11:47;634.30;;;329.80;;
69026;SDS011;56080;47.594;19.116;2022-12-07T12:16:44;613.00;;;315.90;;
69026;SDS011;56080;47.594;19.116;2022-12-07T12:21:36;613.00;;;315.90;;
69026;SDS011;56080;47.594;19.116;2022-12-07T12:26:34;628.10;;;327.10;;
69026;SDS011;56080;47.594;19.116;2022-12-07T12:31:35;628.10;;;327.10;;
69026;SDS011;56080;47.594;19.116;2022-12-07T12:36:43;658.00;;;345.40;;
69026;SDS011;56080;47.594;19.116;2022-12-07T12:51:43;650.70;;;338.50;;
69026;SDS011;56080;47.594;19.116;2022-12-07T12:56:47;648.30;;;336.40;;
69026;SDS011;56080;47.594;19.116;2022-12-07T13:01:42;648.30;;;336.40;;
69026;SDS011;56080;47.594;19.116;2022-12-07T13:06:35;652.10;;;339.20;;
69026;SDS011;56080;47.594;19.116;2022-12-07T13:11:43;652.10;;;339.20;;
69026;SDS011;56080;47.594;19.116;2022-12-07T13:21:43;652.80;;;340.20;;
69026;SDS011;56080;47.594;19.116;2022-12-07T13:26:41;655.60;;;340.00;;
69026;SDS011;56080;47.594;19.116;2022-12-07T13:31:39;655.60;;;340.00;;
69026;SDS011;56080;47.594;19.116;2022-12-07T13:36:37;670.90;;;349.30;;
69026;SDS011;56080;47.594;19.116;2022-12-07T13:51:36;684.60;;;359.40;;
69026;SDS011;56080;47.594;19.116;2022-12-07T13:56:37;654.60;;;334.20;;
69026;SDS011;56080;47.594;19.116;2022-12-07T14:01:33;654.60;;;334.20;;
69026;SDS011;56080;47.594;19.116;2022-12-07T14:06:36;652.10;;;333.80;;
69026;SDS011;56080;47.594;19.116;2022-12-07T14:11:32;652.10;;;333.80;;
69026;SDS011;56080;47.594;19.116;2022-12-07T14:16:37;688.20;;;361.80;;
69026;SDS011;56080;47.594;19.116;2022-12-07T14:21:35;688.20;;;361.80;;
69026;SDS011;56080;47.594;19.116;2022-12-07T14:26:32;689.60;;;361.30;;
69026;SDS011;56080;47.594;19.116;2022-12-07T14:31:41;689.60;;;361.30;;
69026;SDS011;56080;47.594;19.116;2022-12-07T14:36:32;689.60;;;361.30;;
69026;SDS011;56080;47.594;19.116;2022-12-07T14:41:43;697.90;;;372.80;;
69026;SDS011;56080;47.594;19.116;2022-12-07T14:46:32;697.90;;;372.80;;
69026;SDS011;56080;47.594;19.116;2022-12-07T14:51:43;669.40;;;354.20;;
69026;SDS011;56080;47.594;19.116;2022-12-07T14:56:32;669.40;;;354.20;;
69026;SDS011;56080;47.594;19.116;2022-12-07T15:01:32;655.80;;;340.50;;
69026;SDS011;56080;47.594;19.116;2022-12-07T15:06:32;655.80;;;340.50;;
69026;SDS011;56080;47.594;19.116;2022-12-07T15:11:32;678.80;;;358.00;;
69026;SDS011;56080;47.594;19.116;2022-12-07T15:16:33;678.80;;;358.00;;
69026;SDS011;56080;47.594;19.116;2022-12-07T15:21:32;644.80;;;332.20;;
69026;SDS011;56080;47.594;19.116;2022-12-07T15:26:33;644.80;;;332.20;;
69026;SDS011;56080;47.594;19.116;2022-12-07T15:31:42;635.60;;;330.10;;
69026;SDS011;56080;47.594;19.116;2022-12-07T15:36:34;635.60;;;330.10;;
69026;SDS011;56080;47.594;19.116;2022-12-07T15:41:33;671.10;;;359.30;;
69026;SDS011;56080;47.594;19.116;2022-12-07T15:46:34;671.10;;;359.30;;
69026;SDS011;56080;47.594;19.116;2022-12-07T15:51:35;682.80;;;370.20;;
69026;SDS011;56080;47.594;19.116;2022-12-07T15:56:32;682.80;;;370.20;;
69026;SDS011;56080;47.594;19.116;2022-12-07T16:01:33;685.10;;;386.50;;
69026;SDS011;56080;47.594;19.116;2022-12-07T16:06:32;685.10;;;386.50;;
69026;SDS011;56080;47.594;19.116;2022-12-07T16:11:33;656.70;;;360.30;;
69026;SDS011;56080;47.594;19.116;2022-12-07T16:16:32;656.70;;;360.30;;
69026;SDS011;56080;47.594;19.116;2022-12-07T16:21:36;673.20;;;377.10;;
69026;SDS011;56080;47.594;19.116;2022-12-07T16:26:32;673.20;;;377.10;;
69026;SDS011;56080;47.594;19.116;2022-12-07T16:31:34;659.00;;;367.10;;
69026;SDS011;56080;47.594;19.116;2022-12-07T16:36:43;651.00;;;363.00;;
69026;SDS011;56080;47.594;19.116;2022-12-07T16:41:33;651.00;;;363.00;;
69026;SDS011;56080;47.594;19.116;2022-12-07T16:46:33;651.00;;;363.00;;
69026;SDS011;56080;47.594;19.116;2022-12-07T16:51:32;633.80;;;346.20;;
69026;SDS011;56080;47.594;19.116;2022-12-07T16:56:32;633.80;;;346.20;;
69026;SDS011;56080;47.594;19.116;2022-12-07T17:01:33;609.00;;;332.00;;
69026;SDS011;56080;47.594;19.116;2022-12-07T17:06:35;609.00;;;332.00;;
69026;SDS011;56080;47.594;19.116;2022-12-07T17:11:34;634.20;;;353.40;;
69026;SDS011;56080;47.594;19.116;2022-12-07T17:16:33;634.20;;;353.40;;
69026;SDS011;56080;47.594;19.116;2022-12-07T17:26:34;646.80;;;370.70;;
69026;SDS011;56080;47.594;19.116;2022-12-07T17:31:33;624.80;;;343.70;;
69026;SDS011;56080;47.594;19.116;2022-12-07T17:36:34;624.80;;;343.70;;
69026;SDS011;56080;47.594;19.116;2022-12-07T17:41:42;578.10;;;307.80;;
69026;SDS011;56080;47.594;19.116;2022-12-07T17:46:33;578.10;;;307.80;;
69026;SDS011;56080;47.594;19.116;2022-12-07T17:51:43;552.40;;;291.70;;
69026;SDS011;56080;47.594;19.116;2022-12-07T17:56:40;552.40;;;291.70;;
69026;SDS011;56080;47.594;19.116;2022-12-07T18:01:36;546.50;;;285.40;;
69026;SDS011;56080;47.594;19.116;2022-12-07T18:06:33;546.50;;;285.40;;
69026;SDS011;56080;47.594;19.116;2022-12-07T18:11:34;550.50;;;289.90;;
69026;SDS011;56080;47.594;19.116;2022-12-07T18:16:34;550.50;;;289.90;;
69026;SDS011;56080;47.594;19.116;2022-12-07T18:21:35;560.10;;;296.40;;
69026;SDS011;56080;47.594;19.116;2022-12-07T18:26:34;560.10;;;296.40;;
69026;SDS011;56080;47.594;19.116;2022-12-07T18:31:33;571.20;;;304.80;;
69026;SDS011;56080;47.594;19.116;2022-12-07T18:36:33;571.20;;;304.80;;
69026;SDS011;56080;47.594;19.116;2022-12-07T18:46:33;643.00;;;377.60;;
69026;SDS011;56080;47.594;19.116;2022-12-07T18:51:38;593.70;;;333.00;;
69026;SDS011;56080;47.594;19.116;2022-12-07T18:56:34;593.70;;;333.00;;
69026;SDS011;56080;47.594;19.116;2022-12-07T19:01:34;551.70;;;306.80;;
69026;SDS011;56080;47.594;19.116;2022-12-07T19:06:33;551.70;;;306.80;;
69026;SDS011;56080;47.594;19.116;2022-12-07T19:11:47;546.40;;;317.40;;
69026;SDS011;56080;47.594;19.116;2022-12-07T19:16:33;546.40;;;317.40;;
69026;SDS011;56080;47.594;19.116;2022-12-07T19:21:34;535.80;;;295.90;;
69026;SDS011;56080;47.594;19.116;2022-12-07T19:26:33;535.80;;;295.90;;
69026;SDS011;56080;47.594;19.116;2022-12-07T19:31:34;567.80;;;331.90;;
69026;SDS011;56080;47.594;19.116;2022-12-07T19:36:33;567.80;;;331.90;;
69026;SDS011;56080;47.594;19.116;2022-12-07T19:41:43;579.70;;;329.40;;
69026;SDS011;56080;47.594;19.116;2022-12-07T19:46:33;579.70;;;329.40;;
69026;SDS011;56080;47.594;19.116;2022-12-07T19:51:34;632.00;;;390.60;;
69026;SDS011;56080;47.594;19.116;2022-12-07T19:56:33;632.00;;;390.60;;
69026;SDS011;56080;47.594;19.116;2022-12-07T20:01:33;706.80;;;456.40;;
69026;SDS011;56080;47.594;19.116;2022-12-07T20:06:34;706.80;;;456.40;;
69026;SDS011;56080;47.594;19.116;2022-12-07T20:11:45;734.00;;;490.30;;
69026;SDS011;56080;47.594;19.116;2022-12-07T20:16:33;734.00;;;490.30;;
69026;SDS011;56080;47.594;19.116;2022-12-07T20:21:33;788.70;;;551.90;;
69026;SDS011;56080;47.594;19.116;2022-12-07T20:26:33;788.70;;;551.90;;
69026;SDS011;56080;47.594;19.116;2022-12-07T20:31:34;809.20;;;685.30;;
69026;SDS011;56080;47.594;19.116;2022-12-07T20:36:33;809.20;;;685.30;;
69026;SDS011;56080;47.594;19.116;2022-12-07T20:41:43;846.90;;;756.80;;
69026;SDS011;56080;47.594;19.116;2022-12-07T20:46:33;846.90;;;756.80;;
69026;SDS011;56080;47.594;19.116;2022-12-07T20:51:33;803.40;;;693.50;;
69026;SDS011;56080;47.594;19.116;2022-12-07T20:56:35;803.40;;;693.50;;
69026;SDS011;56080;47.594;19.116;2022-12-07T21:01:34;795.10;;;689.70;;
69026;SDS011;56080;47.594;19.116;2022-12-07T21:06:33;795.10;;;689.70;;
69026;SDS011;56080;47.594;19.116;2022-12-07T21:11:33;770.10;;;631.90;;
69026;SDS011;56080;47.594;19.116;2022-12-07T21:16:34;770.10;;;631.90;;
69026;SDS011;56080;47.594;19.116;2022-12-07T21:21:33;767.10;;;586.20;;
69026;SDS011;56080;47.594;19.116;2022-12-07T21:26:34;767.10;;;586.20;;
69026;SDS011;56080;47.594;19.116;2022-12-07T21:31:33;766.50;;;609.60;;
69026;SDS011;56080;47.594;19.116;2022-12-07T21:36:34;766.50;;;609.60;;
69026;SDS011;56080;47.594;19.116;2022-12-07T21:41:33;769.50;;;633.40;;
69026;SDS011;56080;47.594;19.116;2022-12-07T21:46:39;769.50;;;633.40;;
69026;SDS011;56080;47.594;19.116;2022-12-07T21:51:33;764.10;;;626.80;;
69026;SDS011;56080;47.594;19.116;2022-12-07T21:56:36;764.10;;;626.80;;
69026;SDS011;56080;47.594;19.116;2022-12-07T22:06:34;759.80;;;641.40;;
69026;SDS011;56080;47.594;19.116;2022-12-07T22:11:33;750.30;;;605.60;;
69026;SDS011;56080;47.594;19.116;2022-12-07T22:16:33;750.30;;;605.60;;
69026;SDS011;56080;47.594;19.116;2022-12-07T22:21:33;748.80;;;623.50;;
69026;SDS011;56080;47.594;19.116;2022-12-07T22:26:35;748.80;;;623.50;;
69026;SDS011;56080;47.594;19.116;2022-12-07T22:31:34;732.60;;;600.10;;
69026;SDS011;56080;47.594;19.116;2022-12-07T22:36:33;732.60;;;600.10;;
69026;SDS011;56080;47.594;19.116;2022-12-07T22:41:34;735.40;;;585.30;;
69026;SDS011;56080;47.594;19.116;2022-12-07T22:46:33;735.40;;;585.30;;
69026;SDS011;56080;47.594;19.116;2022-12-07T22:51:35;788.10;;;702.50;;
69026;SDS011;56080;47.594;19.116;2022-12-07T22:56:34;788.10;;;702.50;;
69026;SDS011;56080;47.594;19.116;2022-12-07T23:01:33;736.00;;;614.30;;
69026;SDS011;56080;47.594;19.116;2022-12-07T23:06:34;736.00;;;614.30;;
69026;SDS011;56080;47.594;19.116;2022-12-07T23:11:44;721.10;;;595.50;;
69026;SDS011;56080;47.594;19.116;2022-12-07T23:16:33;721.10;;;595.50;;
69026;SDS011;56080;47.594;19.116;2022-12-07T23:21:32;703.30;;;556.20;;
69026;SDS011;56080;47.594;19.116;2022-12-07T23:26:33;703.30;;;556.20;;
69026;SDS011;56080;47.594;19.116;2022-12-07T23:31:33;693.10;;;558.90;;
69026;SDS011;56080;47.594;19.116;2022-12-07T23:36:34;693.10;;;558.90;;
69026;SDS011;56080;47.594;19.116;2022-12-07T23:41:36;682.60;;;513.60;;
69026;SDS011;56080;47.594;19.116;2022-12-07T23:46:36;682.60;;;513.60;;
69026;SDS011;56080;47.594;19.116;2022-12-07T23:51:33;707.20;;;560.10;;
69026;SDS011;56080;47.594;19.116;2022-12-07T23:56:34;707.20;;;560.10;;
